createdAt,value
2023-02-18T00:00:29.659Z,100659.12
2023-02-18T00:03:31.304Z,100665.13
2023-02-18T00:06:35.324Z,100663.72
2023-02-18T00:09:38.893Z,100659.47
2023-02-18T00:12:40.904Z,100657.00
2023-02-18T00:15:42.603Z,100649.16
2023-02-18T00:18:44.283Z,100652.97
2023-02-18T00:21:46.371Z,100648.19
2023-02-18T00:24:48.007Z,100657.41
2023-02-18T00:27:49.677Z,100644.13
2023-02-18T00:30:51.294Z,100649.22
2023-02-18T00:33:53.639Z,100628.28
2023-02-18T00:36:55.279Z,100628.41
2023-02-18T00:39:57.031Z,100624.28
2023-02-18T00:42:58.708Z,100613.78
2023-02-18T00:46:00.459Z,100622.56
2023-02-18T00:49:02.556Z,100616.47
2023-02-18T00:52:04.586Z,100617.00
2023-02-18T00:55:06.589Z,100615.53
2023-02-18T00:58:08.303Z,100626.06
2023-02-18T01:01:10.872Z,100626.44
2023-02-18T01:04:13.097Z,100620.41
2023-02-18T01:07:14.762Z,100612.25
2023-02-18T01:10:18.933Z,100613.06
2023-02-18T01:13:21.318Z,100608.62
2023-02-18T01:16:23.528Z,100610.09
2023-02-18T01:19:25.205Z,100604.69
2023-02-18T01:22:27.278Z,100603.06
2023-02-18T01:25:29.218Z,100611.62
2023-02-18T01:28:30.908Z,100608.81
2023-02-18T01:31:32.621Z,100597.06
2023-02-18T01:34:34.673Z,100597.81
2023-02-18T01:37:36.428Z,100589.94
2023-02-18T01:40:47.410Z,100591.09
2023-02-18T01:43:49.134Z,100594.25
2023-02-18T01:46:51.650Z,100596.66
2023-02-18T01:49:53.943Z,100590.97
2023-02-18T01:52:55.687Z,100605.75
2023-02-18T01:56:00.266Z,100613.03
2023-02-18T01:59:06.306Z,100601.81
2023-02-18T02:02:12.958Z,100601.41
2023-02-18T02:05:15.944Z,100597.22
2023-02-18T02:08:17.883Z,100590.44
2023-02-18T02:11:37.828Z,100583.00
2023-02-18T02:14:48.499Z,100583.28
2023-02-18T02:18:14.925Z,100569.37
2023-02-18T02:21:54.888Z,100557.03
2023-02-18T02:25:33.824Z,100555.13
2023-02-18T02:28:54.380Z,100548.34
2023-02-18T02:32:32.723Z,100544.41
2023-02-18T02:35:46.778Z,100541.16
2023-02-18T02:39:00.605Z,100551.78
2023-02-18T02:42:14.521Z,100540.62
2023-02-18T02:45:29.479Z,100539.03
2023-02-18T02:48:46.320Z,100542.28
2023-02-18T02:51:54.115Z,100549.41
2023-02-18T02:54:55.823Z,100553.13
2023-02-18T02:57:57.859Z,100558.00
2023-02-18T03:01:13.533Z,100547.28
2023-02-18T03:04:36.490Z,100551.78
2023-02-18T03:07:59.896Z,100561.75
2023-02-18T03:11:11.807Z,100561.72
2023-02-18T03:14:28.303Z,100562.72
2023-02-18T03:17:44.841Z,100562.03
2023-02-18T03:20:56.550Z,100560.25
2023-02-18T03:24:09.350Z,100558.69
2023-02-18T03:27:18.488Z,100557.59
2023-02-18T03:30:23.127Z,100550.38
2023-02-18T03:33:33.676Z,100558.44
2023-02-18T03:36:35.882Z,100554.34
2023-02-18T03:39:41.649Z,100558.16
2023-02-18T03:42:43.357Z,100570.06
2023-02-18T03:45:45.064Z,100571.38
2023-02-18T03:48:46.773Z,100572.78
2023-02-18T03:51:48.728Z,100566.88
2023-02-18T03:54:50.953Z,100566.78
2023-02-18T03:57:52.581Z,100570.44
2023-02-18T04:00:54.392Z,100580.28
2023-02-18T04:03:56.191Z,100576.56
2023-02-18T04:06:57.923Z,100576.37
2023-02-18T04:09:59.661Z,100573.59
2023-02-18T04:13:01.423Z,100581.62
2023-02-18T04:16:03.248Z,100578.09
2023-02-18T04:19:04.997Z,100583.94
2023-02-18T04:22:06.809Z,100588.12
2023-02-18T04:25:08.984Z,100573.28
2023-02-18T04:28:13.424Z,100571.44
2023-02-18T04:31:15.596Z,100572.16
2023-02-18T04:34:17.364Z,100566.69
2023-02-18T04:37:18.987Z,100568.06
2023-02-18T04:40:20.782Z,100579.09
2023-02-18T04:43:22.464Z,100571.16
2023-02-18T04:46:24.219Z,100578.69
2023-02-18T04:49:25.878Z,100569.88
2023-02-18T04:52:27.701Z,100581.03
2023-02-18T04:55:29.429Z,100577.41
2023-02-18T04:58:31.110Z,100580.28
2023-02-18T05:01:32.812Z,100582.81
2023-02-18T05:04:34.548Z,100576.50
2023-02-18T05:07:36.457Z,100585.22
2023-02-18T05:10:39.196Z,100589.97
2023-02-18T05:13:40.868Z,100592.00
2023-02-18T05:16:42.528Z,100602.66
2023-02-18T05:19:44.397Z,100598.62
2023-02-18T05:22:46.064Z,100603.97
2023-02-18T05:25:47.829Z,100591.81
2023-02-18T05:28:49.992Z,100604.72
2023-02-18T05:31:52.214Z,100613.22
2023-02-18T05:34:53.941Z,100619.06
2023-02-18T05:37:55.570Z,100635.69
2023-02-18T05:40:57.241Z,100637.78
2023-02-18T05:44:17.507Z,100640.47
2023-02-18T05:47:19.265Z,100643.53
2023-02-18T05:50:20.995Z,100640.69
2023-02-18T05:53:22.668Z,100649.81
2023-02-18T05:56:24.341Z,100663.16
2023-02-18T05:59:26.013Z,100668.28
2023-02-18T06:02:27.732Z,100683.78
2023-02-18T06:05:29.497Z,100691.47
2023-02-18T06:08:31.204Z,100694.00
2023-02-18T06:11:33.059Z,100692.34
2023-02-18T06:14:34.729Z,100702.41
2023-02-18T06:17:36.465Z,100699.91
2023-02-18T06:20:40.221Z,100702.16
2023-02-18T06:23:41.887Z,100709.09
2023-02-18T06:26:43.558Z,100707.19
2023-02-18T06:29:45.228Z,100720.34
2023-02-18T06:32:46.888Z,100723.22
2023-02-18T06:35:59.108Z,100727.47
2023-02-18T06:39:03.625Z,100735.34
2023-02-18T06:42:05.310Z,100733.75
2023-02-18T06:45:07.191Z,100747.53
2023-02-18T06:48:08.996Z,100742.25
2023-02-18T06:51:10.701Z,100754.28
2023-02-18T06:54:12.390Z,100759.59
2023-02-18T06:57:14.050Z,100759.78
2023-02-18T07:00:16.055Z,100757.19
2023-02-18T07:03:17.744Z,100760.78
2023-02-18T07:06:19.504Z,100760.84
2023-02-18T07:09:21.290Z,100760.41
2023-02-18T07:12:23.050Z,100748.97
2023-02-18T07:15:24.722Z,100742.66
2023-02-18T07:18:26.412Z,100746.88
2023-02-18T07:21:28.206Z,100737.34
2023-02-18T07:24:29.943Z,100729.84
2023-02-18T07:27:31.600Z,100726.09
2023-02-18T07:30:33.320Z,100737.81
2023-02-18T07:33:35.238Z,100730.00
2023-02-18T07:36:36.983Z,100729.53
2023-02-18T07:39:43.102Z,100723.75
2023-02-18T07:42:44.862Z,100737.06
2023-02-18T07:45:47.252Z,100734.94
2023-02-18T07:48:48.930Z,100733.13
2023-02-18T07:51:50.769Z,100727.97
2023-02-18T07:54:52.431Z,100732.09
2023-02-18T07:58:02.265Z,100741.63
2023-02-18T08:01:10.217Z,100746.03
2023-02-18T08:04:12.195Z,100748.78
2023-02-18T08:10:34.472Z,100736.81
2023-02-18T08:13:36.137Z,100728.69
2023-02-18T08:16:37.878Z,100727.22
2023-02-18T08:19:39.554Z,100720.91
2023-02-18T08:22:41.193Z,100721.25
2023-02-18T08:25:50.115Z,100730.75
2023-02-18T08:28:51.946Z,100730.66
2023-02-18T08:31:55.225Z,100731.03
2023-02-18T08:34:57.005Z,100721.69
2023-02-18T08:37:58.777Z,100731.09
2023-02-18T08:41:06.312Z,100724.25
2023-02-18T08:44:08.189Z,100723.53
2023-02-18T08:48:16.698Z,100727.72
2023-02-18T08:50:31.606Z,100732.13
2023-02-18T08:53:33.268Z,100732.88
2023-02-18T08:56:34.938Z,100726.91
2023-02-18T08:59:36.736Z,100730.72
2023-02-18T09:02:38.375Z,100716.31
2023-02-18T09:05:40.876Z,100706.69
2023-02-18T09:08:42.600Z,100707.38
2023-02-18T09:11:44.951Z,100714.63
2023-02-18T09:14:48.384Z,100697.87
2023-02-18T09:17:50.014Z,100700.44
2023-02-18T09:20:51.729Z,100707.47
2023-02-18T09:23:53.546Z,100713.75
2023-02-18T09:26:55.648Z,100714.41
2023-02-18T09:29:57.313Z,100720.38
2023-02-18T09:32:58.968Z,100725.16
2023-02-18T09:36:01.724Z,100714.87
2023-02-18T09:39:03.506Z,100716.22
2023-02-18T09:42:11.283Z,100722.63
2023-02-18T09:45:13.794Z,100713.66
2023-02-18T09:48:15.465Z,100708.44
2023-02-18T09:51:18.260Z,100715.22
2023-02-18T09:54:20.569Z,100715.63
2023-02-18T09:57:45.820Z,100716.75
2023-02-18T10:00:52.718Z,100702.53
2023-02-18T10:03:58.221Z,100710.56
2023-02-18T10:07:03.651Z,100702.81
2023-02-18T10:10:21.346Z,100714.59
2023-02-18T10:13:31.177Z,100716.28
2023-02-18T10:16:33.062Z,100721.37
2023-02-18T10:19:39.185Z,100720.75
2023-02-18T10:22:41.098Z,100713.72
2023-02-18T10:25:46.591Z,100697.25
2023-02-18T10:28:48.638Z,100714.66
2023-02-18T10:32:03.115Z,100710.81
2023-02-18T10:35:07.565Z,100700.91
2023-02-18T10:38:30.897Z,100701.59
2023-02-18T10:41:41.851Z,100702.31
2023-02-18T10:44:53.193Z,100693.72
2023-02-18T10:48:03.435Z,100705.22
2023-02-18T10:51:16.252Z,100698.00
2023-02-18T10:54:17.944Z,100697.53
2023-02-18T10:57:23.477Z,100689.19
2023-02-18T11:00:27.776Z,100685.44
2023-02-18T11:03:40.471Z,100691.72
2023-02-18T11:06:46.908Z,100684.44
2023-02-18T11:10:08.787Z,100684.03
2023-02-18T11:13:15.107Z,100682.81
2023-02-18T11:16:17.462Z,100658.16
2023-02-18T11:19:38.177Z,100662.38
2023-02-18T11:22:41.523Z,100657.59
2023-02-18T11:26:01.020Z,100652.72
2023-02-18T11:29:19.932Z,100654.25
2023-02-18T11:32:22.132Z,100655.22
2023-02-18T11:35:28.905Z,100651.38
2023-02-18T11:38:54.390Z,100651.06
2023-02-18T11:42:03.653Z,100646.44
2023-02-18T11:45:05.924Z,100651.59
2023-02-18T11:48:16.267Z,100646.31
2023-02-18T11:51:23.941Z,100637.37
2023-02-18T11:54:26.928Z,100637.34
2023-02-18T11:57:29.600Z,100634.81
2023-02-18T12:00:39.663Z,100627.94
2023-02-18T12:03:55.819Z,100625.66
2023-02-18T12:07:20.656Z,100625.12
2023-02-18T12:10:31.575Z,100620.09
2023-02-18T12:13:51.729Z,100614.84
2023-02-18T12:17:26.006Z,100607.94
2023-02-18T12:20:42.952Z,100612.22
2023-02-18T12:24:05.822Z,100598.66
2023-02-18T12:27:25.275Z,100604.53
2023-02-18T12:30:32.780Z,100597.00
2023-02-18T12:33:53.304Z,100585.28
2023-02-18T12:37:14.246Z,100576.19
2023-02-18T12:40:31.630Z,100569.28
2023-02-18T12:43:46.324Z,100559.69
2023-02-18T12:47:13.118Z,100565.81
2023-02-18T12:50:47.844Z,100570.72
2023-02-18T12:54:02.233Z,100567.91
2023-02-18T12:57:30.441Z,100560.28
2023-02-18T13:00:52.810Z,100561.91
2023-02-18T13:04:22.324Z,100560.72
2023-02-18T13:07:24.019Z,100551.16
2023-02-18T13:10:47.144Z,100555.25
2023-02-18T13:14:17.107Z,100557.47
2023-02-18T13:17:21.336Z,100546.19
2023-02-18T13:20:42.912Z,100553.75
2023-02-18T13:23:47.866Z,100548.91
2023-02-18T13:26:56.090Z,100541.16
2023-02-18T13:30:17.635Z,100525.53
2023-02-18T13:33:35.060Z,100522.16
2023-02-18T13:37:01.841Z,100525.28
2023-02-18T13:40:04.634Z,100517.59
2023-02-18T13:43:28.594Z,100501.53
2023-02-18T13:46:30.325Z,100501.78
2023-02-18T13:49:34.445Z,100489.25
2023-02-18T13:52:36.190Z,100493.72
2023-02-18T13:55:47.296Z,100499.44
2023-02-18T13:59:14.965Z,100488.31
2023-02-18T14:02:22.717Z,100479.28
2023-02-18T14:05:25.671Z,100476.12
2023-02-18T14:08:36.037Z,100464.88
2023-02-18T14:12:02.683Z,100456.78
2023-02-18T14:15:19.432Z,100447.16
2023-02-18T14:18:24.399Z,100444.34
2023-02-18T14:21:43.279Z,100443.78
2023-02-18T14:24:55.794Z,100431.06
2023-02-18T14:28:26.365Z,100433.53
2023-02-18T14:31:41.817Z,100431.75
2023-02-18T14:35:03.949Z,100426.63
2023-02-18T14:38:20.651Z,100424.03
2023-02-18T14:41:22.315Z,100415.03
2023-02-18T14:44:41.431Z,100416.03
2023-02-18T14:47:56.154Z,100420.59
2023-02-18T14:51:00.308Z,100426.09
2023-02-18T14:54:07.665Z,100402.50
2023-02-18T14:57:17.466Z,100404.31
2023-02-18T15:00:23.824Z,100397.72
2023-02-18T15:03:28.618Z,100401.50
2023-02-18T15:06:33.778Z,100392.47
2023-02-18T15:09:35.645Z,100377.88
2023-02-18T15:12:38.498Z,100385.94
2023-02-18T15:15:44.133Z,100381.44
2023-02-18T15:18:58.588Z,100386.22
2023-02-18T15:22:00.558Z,100378.06
2023-02-18T15:25:03.800Z,100377.16
2023-02-18T15:28:06.024Z,100375.69
2023-02-18T15:31:15.219Z,100381.34
2023-02-18T15:34:29.186Z,100384.31
2023-02-18T15:37:33.381Z,100379.37
2023-02-18T15:40:38.012Z,100378.50
2023-02-18T15:43:52.330Z,100377.38
2023-02-18T15:46:54.501Z,100380.50
2023-02-18T15:50:00.260Z,100364.41
2023-02-18T15:53:15.187Z,100353.06
2023-02-18T15:56:33.363Z,100363.09
2023-02-18T15:59:44.253Z,100370.25
2023-02-18T16:03:24.639Z,100361.12
2023-02-18T16:06:27.782Z,100364.97
2023-02-18T16:09:34.191Z,100364.97
2023-02-18T16:12:39.626Z,100366.09
2023-02-18T16:15:45.105Z,100360.41
2023-02-18T16:18:48.260Z,100351.44
2023-02-18T16:21:50.219Z,100357.41
2023-02-18T16:25:19.406Z,100362.78
2023-02-18T16:28:28.091Z,100363.50
2023-02-18T16:31:30.419Z,100352.66
2023-02-18T16:34:32.544Z,100370.34
2023-02-18T16:37:41.112Z,100362.63
2023-02-18T16:40:43.896Z,100362.87
2023-02-18T16:43:45.815Z,100357.62
2023-02-18T16:46:50.726Z,100357.84
2023-02-18T16:49:53.442Z,100362.09
2023-02-18T16:52:55.502Z,100364.97
2023-02-18T16:55:57.918Z,100369.78
2023-02-18T16:59:00.488Z,100369.34
2023-02-18T17:02:03.858Z,100381.66
2023-02-18T17:05:09.820Z,100366.72
2023-02-18T17:08:19.318Z,100366.34
2023-02-18T17:11:28.611Z,100367.19
2023-02-18T17:14:30.559Z,100372.09
2023-02-18T17:17:33.405Z,100367.59
2023-02-18T17:20:35.890Z,100371.03
2023-02-18T17:23:38.057Z,100366.84
2023-02-18T17:26:40.292Z,100358.66
2023-02-18T17:29:42.301Z,100368.91
2023-02-18T17:32:45.865Z,100360.81
2023-02-18T17:35:48.388Z,100371.06
2023-02-18T17:38:51.475Z,100360.84
2023-02-18T17:41:54.180Z,100359.88
2023-02-18T17:44:56.839Z,100352.91
2023-02-18T17:48:00.612Z,100359.66
2023-02-18T17:51:02.963Z,100363.69
2023-02-18T17:54:23.772Z,100363.75
2023-02-18T17:57:26.554Z,100358.66
2023-02-18T18:00:31.503Z,100359.09
2023-02-18T18:03:34.139Z,100350.41
2023-02-18T18:06:36.580Z,100348.28
2023-02-18T18:09:39.487Z,100349.34
2023-02-18T18:12:43.054Z,100351.91
2023-02-18T18:15:45.881Z,100346.28
2023-02-18T18:18:48.404Z,100335.84
2023-02-18T18:21:51.628Z,100339.16
2023-02-18T18:25:42.923Z,100337.38
2023-02-18T18:28:45.465Z,100336.97
2023-02-18T18:31:50.023Z,100336.81
2023-02-18T18:34:52.785Z,100343.59
2023-02-18T18:37:56.443Z,100349.69
2023-02-18T18:41:00.479Z,100338.75
2023-02-18T18:44:05.322Z,100336.84
2023-02-18T18:47:08.294Z,100338.44
2023-02-18T18:50:11.136Z,100336.78
2023-02-18T18:53:24.412Z,100336.03
2023-02-18T18:56:27.245Z,100330.47
2023-02-18T18:59:30.093Z,100327.06
2023-02-18T19:02:32.756Z,100327.31
2023-02-18T19:05:38.891Z,100329.09
2023-02-18T19:08:42.108Z,100338.22
2023-02-18T19:11:44.888Z,100330.84
2023-02-18T19:14:47.402Z,100336.78
2023-02-18T19:17:52.841Z,100333.25
2023-02-18T19:20:55.731Z,100322.34
2023-02-18T19:23:58.628Z,100316.03
2023-02-18T19:27:01.491Z,100326.28
2023-02-18T19:30:07.117Z,100327.72
2023-02-18T19:33:13.459Z,100344.00
2023-02-18T19:36:17.373Z,100330.12
2023-02-18T19:39:19.909Z,100344.69
2023-02-18T19:42:22.836Z,100354.28
2023-02-18T19:45:25.855Z,100357.56
2023-02-18T19:48:28.836Z,100357.53
2023-02-18T19:51:31.649Z,100334.59
2023-02-18T19:54:34.020Z,100341.31
2023-02-18T19:57:36.757Z,100351.00
2023-02-18T20:00:41.664Z,100346.59
2023-02-18T20:03:44.783Z,100358.47
2023-02-18T20:06:49.389Z,100359.56
2023-02-18T20:09:52.996Z,100359.69
2023-02-18T20:12:55.676Z,100377.78
2023-02-18T20:15:58.387Z,100378.19
2023-02-18T20:19:01.090Z,100373.59
2023-02-18T20:22:04.809Z,100373.69
2023-02-18T20:25:07.839Z,100385.72
2023-02-18T20:28:10.452Z,100375.28
2023-02-18T20:31:15.630Z,100376.19
2023-02-18T20:34:18.083Z,100387.91
2023-02-18T20:37:20.805Z,100382.28
2023-02-18T20:40:23.600Z,100376.72
2023-02-18T20:43:26.733Z,100372.03
2023-02-18T20:46:29.768Z,100369.06
2023-02-18T20:49:34.543Z,100369.06
2023-02-18T20:52:37.377Z,100369.75
2023-02-18T20:55:47.350Z,100362.34
2023-02-18T20:58:50.343Z,100371.97
2023-02-18T21:01:53.240Z,100381.59
2023-02-18T21:04:55.347Z,100374.50
2023-02-18T21:07:57.962Z,100369.75
2023-02-18T21:11:06.549Z,100363.47
2023-02-18T21:14:09.685Z,100361.09
2023-02-18T21:17:11.979Z,100362.87
2023-02-18T21:20:14.497Z,100368.38
2023-02-18T21:23:18.240Z,100376.16
2023-02-18T21:26:23.821Z,100375.00
2023-02-18T21:29:26.780Z,100375.03
2023-02-18T21:32:29.051Z,100373.50
2023-02-18T21:35:32.200Z,100375.25
2023-02-18T21:38:34.773Z,100373.69
2023-02-18T21:41:40.364Z,100370.81
2023-02-18T21:44:43.677Z,100381.06
2023-02-18T21:47:47.121Z,100390.63
2023-02-18T21:50:50.381Z,100385.63
2023-02-18T21:53:52.386Z,100387.03
2023-02-18T21:56:55.648Z,100379.13
2023-02-18T21:59:58.175Z,100380.84
2023-02-18T22:03:01.296Z,100376.69
2023-02-18T22:06:03.177Z,100376.53
2023-02-18T22:09:06.671Z,100389.63
2023-02-18T22:12:09.464Z,100395.12
2023-02-18T22:15:11.662Z,100394.50
2023-02-18T22:18:13.426Z,100400.09
2023-02-18T22:21:15.115Z,100409.34
2023-02-18T22:24:18.478Z,100423.00
2023-02-18T22:27:20.296Z,100419.84
2023-02-18T22:30:22.015Z,100418.97
2023-02-18T22:33:23.706Z,100413.66
2023-02-18T22:36:27.579Z,100428.16
2023-02-18T22:39:29.270Z,100430.00
2023-02-18T22:42:31.000Z,100424.38
2023-02-18T22:45:36.463Z,100417.44
2023-02-18T22:48:39.471Z,100424.09
2023-02-18T22:51:44.063Z,100431.38
2023-02-18T22:54:45.716Z,100423.28
2023-02-18T22:57:47.391Z,100419.00
2023-02-18T23:00:49.086Z,100419.34
2023-02-18T23:03:51.966Z,100421.13
2023-02-18T23:06:53.783Z,100412.88
2023-02-18T23:09:55.931Z,100417.19
2023-02-18T23:12:57.578Z,100404.19
2023-02-18T23:16:02.081Z,100398.41
2023-02-18T23:19:03.742Z,100398.59
2023-02-18T23:22:05.877Z,100392.66
2023-02-18T23:25:08.185Z,100391.22
2023-02-18T23:28:09.817Z,100378.22
2023-02-18T23:31:12.096Z,100374.56
2023-02-18T23:34:23.525Z,100377.62
2023-02-18T23:37:45.134Z,100372.72
2023-02-18T23:40:46.856Z,100388.94
2023-02-18T23:43:49.342Z,100395.28
2023-02-18T23:46:51.241Z,100392.47
2023-02-18T23:49:52.893Z,100404.53
2023-02-18T23:52:54.638Z,100411.22
2023-02-18T23:56:26.258Z,100410.50
2023-02-18T23:59:27.958Z,100412.94
